Terminal Aerodrome Forecast
Issued by NWS

Home | Current Version | Previous Version | Text Only | Print | Product List | Glossary On
Versions: 1 2 3 4 5 6 7 8 9 10 11 12 13 14 15 16
000
FTUS44 KLIX 272320
TAFHUM
TAF
KHUM 272320Z 2800/2824 12007KT P6SM SCT020 OVC120 PROB30 2812/2815
      4SM -TSRA OVC040CB
     FM281500 11007KT P6SM -SHRA VCTS OVC050CB=

USA.gov is the U.S. government's official web portal to all federal, state and local government web resources and services.